Time;durP1;ratioP1;P1;durP2;ratioP2;P2;SDS_P1;SDS_P2;PMS_P1;PMS_P2;Temp;Humidity;BMP_temperature;BMP_pressure;BME280_temperature;BME280_humidity;BME280_pressure;Samples;Min_cycle;Max_cycle;Signal;HPM_P1;HPM_P2
2022/03/28 00:01:36;;;;;;;12.00;9.83;;;;;;;14.32;40.22;95531.69;5040626;28;20194;-75
2022/03/28 00:04:02;;;;;;;9.17;8.27;;;;;;;13.89;41.64;95515.25;5052006;28;20186;-74
2022/03/28 00:06:27;;;;;;;8.90;7.43;;;;;;;13.60;42.01;95525.81;5050776;28;20209;-75
2022/03/28 00:08:53;;;;;;;10.30;8.57;;;;;;;13.90;41.40;95520.34;5051227;28;20179;-75
2022/03/28 00:11:19;;;;;;;11.03;8.20;;;;;;;13.84;41.66;95527.19;5040854;28;20187;-74
2022/03/28 00:13:45;;;;;;;10.87;7.40;;;;;;;13.79;41.13;95529.59;5052144;28;20187;-75
2022/03/28 00:16:12;;;;;;;10.73;8.90;;;;;;;14.00;41.20;95522.63;5055598;28;20174;-75
2022/03/28 00:18:40;;;;;;;10.80;8.60;;;;;;;13.86;41.15;95517.28;5056452;28;20430;-74
2022/03/28 00:21:06;;;;;;;9.57;7.87;;;;;;;14.24;40.68;95519.50;5045559;28;20561;-75
2022/03/28 00:23:32;;;;;;;10.80;9.57;;;;;;;14.11;41.06;95516.81;5046747;28;20548;-75
2022/03/28 00:25:59;;;;;;;9.17;8.20;;;;;;;14.03;40.38;95509.09;5046815;28;20458;-75
2022/03/28 00:28:25;;;;;;;11.33;8.57;;;;;;;13.72;41.50;95510.31;5065370;28;20433;-74
2022/03/28 00:30:50;;;;;;;8.50;7.70;;;;;;;13.40;42.34;95515.13;5061669;28;20426;-74
2022/03/28 00:33:16;;;;;;;11.20;9.20;;;;;;;13.47;42.04;95510.75;5046362;28;20432;-75
2022/03/28 00:35:42;;;;;;;15.73;10.20;;;;;;;13.60;42.33;95504.78;5059577;28;20197;-74
2022/03/28 00:38:08;;;;;;;13.20;8.77;;;;;;;13.81;41.70;95497.81;5052673;28;20172;-75
2022/03/28 00:40:34;;;;;;;12.73;7.90;;;;;;;13.85;41.70;95507.78;5026148;28;20172;-75
2022/03/28 00:43:03;;;;;;;11.60;8.87;;;;;;;13.81;41.28;95503.91;5050701;28;20528;-75
2022/03/28 00:45:30;;;;;;;12.80;9.20;;;;;;;13.94;41.47;95499.72;5049107;28;21025;-75
2022/03/28 00:47:56;;;;;;;13.00;9.27;;;;;;;13.83;41.79;95511.63;5037103;28;20444;-75
2022/03/28 00:50:21;;;;;;;9.67;8.67;;;;;;;13.94;41.25;95500.53;5050106;28;20423;-75
2022/03/28 00:52:48;;;;;;;15.17;11.60;;;;;;;13.94;41.15;95494.44;5045871;28;20309;-76
2022/03/28 00:55:13;;;;;;;22.77;16.07;;;;;;;13.85;40.84;95499.88;5056714;28;20179;-76
2022/03/28 00:57:40;;;;;;;19.60;15.00;;;;;;;13.47;40.72;95510.75;5039418;28;20484;-75
2022/03/28 01:00:09;;;;;;;21.97;15.30;;;;;;;12.97;41.66;95509.06;5043553;28;20179;-76
2022/03/28 01:02:35;;;;;;;27.00;16.33;;;;;;;12.78;42.36;95499.97;5046632;28;20932;-75
2022/03/28 01:05:01;;;;;;;17.60;13.80;;;;;;;12.54;43.20;95503.75;5033388;28;20445;-75
2022/03/28 01:07:26;;;;;;;20.50;13.23;;;;;;;12.73;42.67;95497.09;5069662;28;20432;-76
2022/03/28 01:09:55;;;;;;;18.43;13.70;;;;;;;12.80;42.84;95504.03;5061206;28;20189;-75
2022/03/28 01:12:22;;;;;;;15.53;12.47;;;;;;;12.90;42.25;95498.50;5060825;28;20167;-75
2022/03/28 01:14:49;;;;;;;19.80;14.00;;;;;;;12.67;42.20;95488.97;5040875;28;20423;-76
2022/03/28 01:19:58;;;;;;;21.87;14.60;;;;;;;12.53;42.80;95489.81;5049506;28;20459;-75
2022/03/28 01:22:24;;;;;;;18.53;14.13;;;;;;;12.79;42.23;95494.56;5057128;28;20453;-75
2022/03/28 01:24:50;;;;;;;17.73;14.87;;;;;;;12.67;41.96;95493.41;5053928;28;20190;-76
2022/03/28 01:27:15;;;;;;;19.37;15.03;;;;;;;12.72;41.97;95490.22;5031805;28;20194;-76
2022/03/28 01:29:44;;;;;;;17.20;13.43;;;;;;;12.82;41.76;95493.34;5047517;28;20185;-75
2022/03/28 01:32:11;;;;;;;20.47;15.40;;;;;;;12.89;41.36;95491.63;5027051;28;20172;-75
2022/03/28 01:34:37;;;;;;;23.83;15.60;;;;;;;12.86;41.91;95499.84;5044905;28;20454;-76
2022/03/28 01:37:03;;;;;;;19.43;15.60;;;;;;;12.60;42.03;95493.34;5033637;28;20430;-76
2022/03/28 01:39:28;;;;;;;21.83;16.47;;;;;;;12.44;42.46;95491.72;5048076;28;20423;-76
2022/03/28 01:41:54;;;;;;;20.47;16.40;;;;;;;12.54;42.43;95488.84;5040331;28;20499;-76
2022/03/28 01:44:20;;;;;;;19.77;14.70;;;;;;;12.82;41.45;95486.28;5036532;28;20183;-76
2022/03/28 01:46:48;;;;;;;18.70;14.50;;;;;;;12.97;41.53;95493.28;5057058;28;20185;-76
2022/03/28 01:49:16;;;;;;;22.73;15.60;;;;;;;12.40;42.14;95487.06;5054141;28;20261;-75
2022/03/28 01:51:43;;;;;;;20.57;15.47;;;;;;;12.48;42.22;95484.31;5043487;28;20415;-76
2022/03/28 01:54:09;;;;;;;22.87;14.50;;;;;;;12.44;42.33;95489.09;5035883;28;20414;-75
2022/03/28 01:56:35;;;;;;;19.60;13.30;;;;;;;12.24;43.17;95486.28;5048005;28;20429;-75
2022/03/28 01:59:02;;;;;;;23.43;16.60;;;;;;;12.06;43.51;95491.88;5028195;28;20430;-75
2022/03/28 02:01:28;;;;;;;19.13;14.60;;;;;;;12.07;43.91;95487.47;5045583;28;20470;-75
2022/03/28 02:03:53;;;;;;;20.73;15.77;;;;;;;12.23;43.31;95492.50;5045533;28;20461;-76
2022/03/28 02:06:19;;;;;;;18.70;14.77;;;;;;;12.15;43.08;95495.22;5042653;28;20268;-76
2022/03/28 02:08:44;;;;;;;19.83;15.80;;;;;;;12.16;42.77;95496.88;5043062;28;20644;-75
2022/03/28 02:11:10;;;;;;;23.27;15.43;;;;;;;11.96;43.14;95490.56;5032877;28;20164;-75
2022/03/28 02:13:35;;;;;;;22.53;14.53;;;;;;;11.94;43.60;95487.31;5058727;28;20186;-76
2022/03/28 02:16:01;;;;;;;17.57;13.47;;;;;;;12.21;43.16;95491.88;5054029;28;20187;-75
2022/03/28 02:18:27;;;;;;;25.00;14.80;;;;;;;12.19;43.44;95490.44;5049363;28;20727;-75
2022/03/28 02:20:53;;;;;;;18.97;13.40;;;;;;;12.49;42.50;95485.94;5046371;28;20248;-75
2022/03/28 02:23:19;;;;;;;23.27;15.83;;;;;;;12.15;43.19;95490.00;5069603;28;20408;-76
2022/03/28 02:25:44;;;;;;;25.77;14.50;;;;;;;12.44;43.04;95493.56;5051521;28;20171;-76
2022/03/28 02:28:11;;;;;;;20.30;14.37;;;;;;;12.40;42.96;95492.31;5049995;28;20210;-75
2022/03/28 02:30:37;;;;;;;18.60;13.70;;;;;;;11.88;43.97;95489.63;5029360;28;20183;-75
2022/03/28 02:33:03;;;;;;;16.77;13.33;;;;;;;11.72;44.83;95490.63;5068497;28;20784;-76
2022/03/28 02:35:30;;;;;;;18.37;14.20;;;;;;;11.85;44.51;95487.34;5058085;28;20424;-75
2022/03/28 02:37:57;;;;;;;18.10;14.77;;;;;;;11.65;45.36;95489.69;5062471;28;20251;-76
2022/03/28 02:40:23;;;;;;;17.67;13.07;;;;;;;11.93;44.77;95490.91;5053836;28;20516;-76
2022/03/28 02:42:48;;;;;;;19.13;13.20;;;;;;;11.55;45.80;95483.09;5066716;28;20473;-76
2022/03/28 02:45:14;;;;;;;21.37;14.60;;;;;;;11.87;44.91;95487.97;5042235;28;20193;-76
2022/03/28 02:47:39;;;;;;;18.70;14.30;;;;;;;11.85;44.95;95489.97;5067524;28;20175;-76
2022/03/28 02:50:06;;;;;;;17.90;14.50;;;;;;;11.73;45.17;95496.66;5057357;28;20183;-76
2022/03/28 02:52:31;;;;;;;18.83;13.33;;;;;;;11.84;44.53;95488.34;5049257;28;20222;-76
2022/03/28 02:54:57;;;;;;;22.07;15.37;;;;;;;11.77;44.92;95490.06;5048881;28;20422;-75
2022/03/28 02:57:22;;;;;;;17.20;13.83;;;;;;;11.77;44.65;95492.69;5031076;28;20186;-76
2022/03/28 02:59:47;;;;;;;17.83;14.40;;;;;;;11.95;44.38;95491.53;5048697;28;20247;-76
2022/03/28 03:02:13;;;;;;;16.47;14.13;;;;;;;11.80;44.70;95502.00;5048728;28;20218;-76
2022/03/28 03:04:38;;;;;;;22.00;15.50;;;;;;;12.02;45.05;95497.69;5053481;28;20189;-76
2022/03/28 03:07:04;;;;;;;18.30;13.90;;;;;;;12.04;44.35;95500.94;5050767;28;20183;-76
2022/03/28 03:09:30;;;;;;;20.70;15.17;;;;;;;11.80;44.90;95502.81;5032555;28;20230;-75
2022/03/28 03:11:55;;;;;;;20.70;16.60;;;;;;;11.81;44.76;95504.44;5052118;28;20459;-75
2022/03/28 03:14:21;;;;;;;17.53;15.33;;;;;;;11.73;44.91;95499.28;5050189;28;20176;-75
2022/03/28 03:16:47;;;;;;;18.87;14.77;;;;;;;11.67;45.10;95506.06;5030291;28;20206;-75
2022/03/28 03:19:12;;;;;;;19.30;15.03;;;;;;;11.88;44.38;95510.59;5047942;28;20195;-76
2022/03/28 03:21:38;;;;;;;19.10;14.90;;;;;;;11.61;45.23;95506.78;5047772;28;20223;-76
2022/03/28 03:24:05;;;;;;;23.40;15.07;;;;;;;12.05;44.50;95506.00;5062058;28;20178;-76
2022/03/28 03:26:31;;;;;;;20.13;16.40;;;;;;;12.06;44.24;95509.44;5048341;28;20271;-75
2022/03/28 03:28:58;;;;;;;23.20;13.53;;;;;;;11.60;45.27;95506.97;5066309;28;20452;-76
2022/03/28 03:31:24;;;;;;;23.40;16.43;;;;;;;11.41;45.75;95516.94;5051659;28;20230;-75
2022/03/28 03:33:49;;;;;;;18.60;14.30;;;;;;;11.12;46.83;95518.50;5047830;28;20426;-75
2022/03/28 03:36:15;;;;;;;22.70;13.97;;;;;;;11.50;45.91;95517.72;5058116;28;20508;-76
2022/03/28 03:38:40;;;;;;;17.27;14.40;;;;;;;11.31;46.09;95519.03;5067706;28;20257;-75
2022/03/28 03:41:07;;;;;;;25.10;14.30;;;;;;;11.26;46.43;95511.66;5059184;28;20243;-76
2022/03/28 03:43:33;;;;;;;19.50;14.90;;;;;;;11.36;46.29;95510.63;5062011;28;20190;-75
2022/03/28 03:45:58;;;;;;;18.03;14.53;;;;;;;11.09;46.35;95520.66;5047944;28;20427;-75
2022/03/28 03:48:25;;;;;;;21.87;15.60;;;;;;;11.07;46.70;95512.97;5048144;28;20179;-76
2022/03/28 03:50:51;;;;;;;20.50;14.50;;;;;;;11.05;46.75;95514.94;5047716;28;20175;-76
2022/03/28 03:53:19;;;;;;;23.53;14.50;;;;;;;11.00;47.59;95522.50;5043118;28;20527;-75
2022/03/28 03:55:45;;;;;;;21.70;13.77;;;;;;;11.03;46.74;95516.94;5050019;28;20474;-76
2022/03/28 03:58:11;;;;;;;18.57;14.37;;;;;;;10.90;47.38;95521.94;5067823;28;20444;-75
2022/03/28 04:00:36;;;;;;;25.80;16.60;;;;;;;10.99;47.22;95526.13;5067525;28;20664;-76
2022/03/28 04:03:03;;;;;;;22.57;14.70;;;;;;;11.22;47.20;95520.06;5056413;28;20225;-76
2022/03/28 04:05:29;;;;;;;22.90;15.70;;;;;;;11.15;46.75;95527.81;5061449;28;20705;-76
2022/03/28 04:07:54;;;;;;;33.57;16.00;;;;;;;11.50;45.81;95528.19;5054424;28;20493;-75
2022/03/28 04:10:22;;;;;;;19.83;14.93;;;;;;;11.52;46.42;95526.22;5062424;28;20418;-75
2022/03/28 04:12:47;;;;;;;26.67;15.00;;;;;;;11.30;46.74;95528.66;5047371;28;20172;-76
2022/03/28 04:15:13;;;;;;;17.30;14.20;;;;;;;10.83;47.57;95526.25;5029982;28;20444;-76
2022/03/28 04:17:43;;;;;;;22.03;16.17;;;;;;;10.51;48.29;95533.31;5029539;28;20180;-75
2022/03/28 04:20:17;;;;;;;24.70;13.67;;;;;;;9.76;51.00;95530.09;5047083;28;20187;-76
2022/03/28 04:22:45;;;;;;;23.87;15.10;;;;;;;10.34;50.03;95533.38;5049304;28;20489;-77
2022/03/28 04:25:12;;;;;;;18.03;13.23;;;;;;;10.21;49.76;95535.69;5067299;28;20435;-75
2022/03/28 04:27:38;;;;;;;19.23;13.80;;;;;;;10.10;50.71;95536.88;5052619;28;20433;-76
2022/03/28 04:30:13;;;;;;;22.20;17.03;;;;;;;10.39;49.79;95532.06;5028762;28;20806;-76
2022/03/28 04:32:39;;;;;;;21.40;14.97;;;;;;;10.61;48.54;95533.09;5051962;28;20446;-75
2022/03/28 04:35:06;;;;;;;24.10;14.27;;;;;;;10.96;48.22;95526.47;5054586;28;20450;-75
2022/03/28 04:37:37;;;;;;;22.63;16.10;;;;;;;10.67;49.21;95530.59;5050474;28;20508;-75
2022/03/28 04:40:04;;;;;;;17.10;15.30;;;;;;;10.71;48.09;95528.44;5054340;28;20456;-75
2022/03/28 04:42:30;;;;;;;22.27;12.70;;;;;;;10.87;48.69;95538.00;5053772;28;20469;-75
2022/03/28 04:44:56;;;;;;;18.23;12.90;;;;;;;10.27;50.09;95526.34;5047849;28;20429;-75
2022/03/28 04:47:22;;;;;;;18.10;13.83;;;;;;;10.40;49.52;95534.50;5049519;28;20505;-75
2022/03/28 04:49:47;;;;;;;21.83;14.10;;;;;;;10.70;48.64;95529.44;5046227;28;20183;-75
2022/03/28 04:52:13;;;;;;;24.60;15.20;;;;;;;10.96;48.22;95521.25;5049854;28;20227;-76
2022/03/28 04:54:38;;;;;;;23.00;14.57;;;;;;;11.18;47.91;95514.38;5053473;28;20273;-75
2022/03/28 04:57:04;;;;;;;24.43;14.87;;;;;;;10.96;48.28;95516.00;5051830;28;20183;-75
2022/03/28 04:59:30;;;;;;;23.97;16.53;;;;;;;11.17;48.23;95510.09;5047739;28;20312;-75
2022/03/28 05:01:56;;;;;;;19.73;13.93;;;;;;;11.34;47.69;95521.28;5063388;28;20537;-75
2022/03/28 05:04:22;;;;;;;21.53;14.53;;;;;;;11.39;47.31;95505.84;5038588;28;20445;-75
2022/03/28 05:06:47;;;;;;;23.43;16.20;;;;;;;11.66;47.25;95522.78;5045940;28;20246;-76
2022/03/28 05:09:13;;;;;;;23.90;15.63;;;;;;;11.38;47.51;95522.53;5059956;28;20181;-75
2022/03/28 05:11:38;;;;;;;23.57;15.77;;;;;;;11.41;47.42;95524.81;5064551;28;20245;-75
2022/03/28 05:14:04;;;;;;;25.13;15.93;;;;;;;11.34;47.16;95523.88;5054482;28;20179;-75
2022/03/28 05:16:30;;;;;;;28.17;15.07;;;;;;;11.48;46.77;95532.81;5047310;28;20175;-76
2022/03/28 05:18:56;;;;;;;20.43;16.17;;;;;;;11.32;47.66;95537.19;5036198;28;20290;-75
2022/03/28 05:21:21;;;;;;;24.43;17.10;;;;;;;11.03;48.12;95530.03;5043283;28;20501;-76
2022/03/28 05:23:46;;;;;;;27.83;18.57;;;;;;;11.41;46.78;95530.06;5063530;28;20531;-76
2022/03/28 05:26:12;;;;;;;29.87;19.43;;;;;;;11.64;47.00;95532.63;5054161;28;20187;-76
2022/03/28 05:28:37;;;;;;;25.07;20.10;;;;;;;11.53;46.41;95533.06;5062807;28;20189;-76
2022/03/28 05:31:03;;;;;;;41.93;22.17;;;;;;;11.67;45.93;95528.84;5064881;28;20201;-76
2022/03/28 05:33:28;;;;;;;29.17;22.40;;;;;;;11.72;45.41;95539.59;5049883;28;20180;-76
2022/03/28 05:35:54;;;;;;;39.17;27.70;;;;;;;11.53;45.42;95536.53;5064591;28;20167;-75
2022/03/28 05:38:20;;;;;;;35.50;25.10;;;;;;;11.50;45.15;95536.88;5063463;28;20233;-75
2022/03/28 05:40:46;;;;;;;35.47;25.90;;;;;;;11.87;45.08;95539.63;5051794;28;20178;-75
2022/03/28 05:43:11;;;;;;;39.33;25.13;;;;;;;12.05;44.50;95541.94;5053951;28;20451;-76
2022/03/28 05:45:37;;;;;;;36.03;26.50;;;;;;;12.28;44.00;95542.63;5071367;28;20182;-76
2022/03/28 05:48:03;;;;;;;32.43;26.33;;;;;;;12.65;43.34;95547.91;5043070;28;20187;-76
2022/03/28 05:50:29;;;;;;;34.37;25.03;;;;;;;12.34;43.36;95546.34;5046818;28;20175;-76
2022/03/28 05:52:55;;;;;;;30.17;22.67;;;;;;;12.87;42.80;95539.06;5054928;28;20460;-76
2022/03/28 05:55:21;;;;;;;34.40;24.33;;;;;;;12.73;42.60;95554.88;5056860;28;20432;-76
2022/03/28 05:57:47;;;;;;;28.50;22.60;;;;;;;12.88;42.66;95545.13;5071641;28;20205;-75
2022/03/28 06:00:14;;;;;;;38.57;23.33;;;;;;;13.14;41.81;95547.22;5059064;28;20437;-76
2022/03/28 06:02:41;;;;;;;29.27;20.77;;;;;;;13.29;42.13;95547.16;5041929;28;20863;-76
2022/03/28 06:05:07;;;;;;;39.67;20.10;;;;;;;13.30;41.54;95546.22;5058061;28;20445;-76
2022/03/28 06:07:33;;;;;;;23.40;17.90;;;;;;;13.31;41.93;95547.81;5063997;28;20433;-76
2022/03/28 06:09:59;;;;;;;24.43;17.80;;;;;;;13.26;42.13;95539.66;5054192;28;20949;-76
2022/03/28 06:12:24;;;;;;;24.83;17.13;;;;;;;13.38;41.68;95542.63;5070578;28;20505;-76
2022/03/28 06:14:50;;;;;;;28.17;18.93;;;;;;;13.99;40.35;95542.06;5060588;28;20174;-75
2022/03/28 06:17:25;;;;;;;22.33;17.50;;;;;;;13.81;40.55;95545.16;5067750;28;20185;-75
2022/03/28 06:19:52;;;;;;;25.73;17.77;;;;;;;13.44;40.32;95542.69;5053714;28;20227;-76
2022/03/28 06:22:18;;;;;;;23.83;18.50;;;;;;;13.46;41.68;95543.28;5053139;28;20479;-76
2022/03/28 06:24:45;;;;;;;27.67;18.70;;;;;;;13.23;41.25;95551.34;5050297;28;20436;-76
2022/03/28 06:27:12;;;;;;;28.33;21.07;;;;;;;13.58;40.69;95541.00;5043114;28;20428;-76
2022/03/28 06:29:37;;;;;;;29.60;20.30;;;;;;;13.38;41.75;95553.97;5057165;28;20425;-76
2022/03/28 06:32:03;;;;;;;28.57;21.03;;;;;;;12.89;41.42;95550.22;5050983;28;20748;-76
2022/03/28 06:34:30;;;;;;;26.30;20.90;;;;;;;13.51;41.19;95539.28;5051507;28;20191;-76
2022/03/28 06:36:57;;;;;;;24.20;19.60;;;;;;;13.12;41.87;95538.72;5065608;28;20425;-75
2022/03/28 06:39:22;;;;;;;24.30;19.30;;;;;;;13.65;41.03;95543.66;5050767;28;20480;-76
2022/03/28 06:41:48;;;;;;;32.50;18.90;;;;;;;13.59;41.34;95541.78;5056399;28;20469;-76
2022/03/28 06:44:13;;;;;;;28.43;19.63;;;;;;;13.84;40.47;95542.97;5067612;28;20179;-75
2022/03/28 06:46:47;;;;;;;27.93;19.60;;;;;;;13.80;40.14;95546.19;5031689;28;20238;-76
2022/03/28 06:49:12;;;;;;;23.43;18.50;;;;;;;14.28;39.55;95550.72;5056574;28;20171;-76
2022/03/28 06:51:38;;;;;;;28.17;20.47;;;;;;;14.23;39.59;95552.13;5063754;28;20451;-75
2022/03/28 06:54:05;;;;;;;29.80;20.83;;;;;;;14.55;39.44;95551.66;5062268;28;20214;-75
2022/03/28 06:56:31;;;;;;;41.43;24.23;;;;;;;14.64;38.84;95545.25;5047875;28;20184;-76
2022/03/28 06:58:56;;;;;;;29.67;20.40;;;;;;;14.61;39.32;95543.03;5047780;28;20452;-75
2022/03/28 07:01:22;;;;;;;28.73;20.57;;;;;;;14.61;39.51;95546.47;5057768;28;20198;-76
2022/03/28 07:03:47;;;;;;;28.10;18.90;;;;;;;14.19;39.69;95550.91;5067637;28;20257;-75
2022/03/28 07:06:13;;;;;;;32.60;20.43;;;;;;;14.73;38.77;95545.91;5054260;28;20200;-75
2022/03/28 07:08:38;;;;;;;30.80;19.27;;;;;;;15.00;37.83;95547.56;5061684;28;20274;-76
2022/03/28 07:11:04;;;;;;;28.73;19.20;;;;;;;14.76;38.45;95548.94;5052016;28;20183;-76
2022/03/28 07:13:30;;;;;;;25.43;16.30;;;;;;;14.41;39.75;95550.78;5067740;28;20190;-75
2022/03/28 07:15:55;;;;;;;22.10;15.90;;;;;;;14.73;38.97;95545.91;5068024;28;20182;-75
2022/03/28 07:18:22;;;;;;;30.07;17.20;;;;;;;14.74;39.27;95550.97;5059905;28;20180;-76
2022/03/28 07:20:50;;;;;;;25.47;16.47;;;;;;;14.58;39.57;95552.13;5053513;28;20225;-76
2022/03/28 07:23:19;;;;;;;24.90;17.97;;;;;;;14.95;39.68;95550.03;5071529;28;20461;-75
2022/03/28 07:25:45;;;;;;;22.43;16.83;;;;;;;15.46;38.01;95553.13;5041275;28;20504;-76
2022/03/28 07:28:12;;;;;;;26.67;16.77;;;;;;;15.81;37.95;95544.03;5063563;28;20444;-76
2022/03/28 07:30:39;;;;;;;28.57;16.37;;;;;;;15.97;37.66;95547.25;5054766;28;20176;-76
2022/03/28 07:33:06;;;;;;;27.60;16.30;;;;;;;16.34;36.67;95543.13;5060175;28;20421;-76
2022/03/28 07:35:33;;;;;;;17.83;14.40;;;;;;;16.24;36.71;95541.91;5048636;28;20422;-75
2022/03/28 07:37:58;;;;;;;18.67;14.97;;;;;;;15.97;37.25;95545.44;5059452;28;20425;-76
2022/03/28 07:40:25;;;;;;;17.23;14.00;;;;;;;15.76;37.68;95538.56;5059865;28;20479;-76
2022/03/28 07:42:53;;;;;;;16.87;13.97;;;;;;;16.25;37.19;95538.28;5056100;28;20465;-76
2022/03/28 07:45:19;;;;;;;14.80;13.27;;;;;;;16.63;36.36;95542.81;5032219;28;20429;-75
2022/03/28 07:47:45;;;;;;;20.13;13.47;;;;;;;16.64;36.37;95547.91;5046934;28;20422;-76
2022/03/28 07:50:11;;;;;;;16.23;13.30;;;;;;;16.14;37.54;95542.34;5038381;28;20429;-76
2022/03/28 07:52:38;;;;;;;20.63;14.50;;;;;;;16.73;36.02;95546.66;5049320;28;20219;-75
2022/03/28 07:55:05;;;;;;;18.17;13.33;;;;;;;16.94;36.10;95537.63;5037664;28;20433;-75
2022/03/28 07:57:31;;;;;;;18.60;13.67;;;;;;;17.10;36.00;95541.59;5058446;28;20579;-76
2022/03/28 07:59:56;;;;;;;15.30;13.10;;;;;;;17.18;35.59;95540.53;5048748;28;20429;-76
2022/03/28 08:02:24;;;;;;;18.20;12.10;;;;;;;17.53;34.75;95534.81;5042425;28;20250;-76
2022/03/28 08:04:50;;;;;;;13.40;12.00;;;;;;;17.51;34.96;95531.53;5053327;28;20199;-76
2022/03/28 08:07:16;;;;;;;22.03;12.20;;;;;;;18.28;33.51;95524.13;5052450;28;20438;-76
2022/03/28 08:12:25;;;;;;;15.87;12.97;;;;;;;16.80;35.66;95530.75;5053991;28;20198;-76
2022/03/28 08:14:52;;;;;;;19.33;13.77;;;;;;;16.15;37.26;95515.75;5057057;28;20532;-76
2022/03/28 08:17:19;;;;;;;18.70;13.33;;;;;;;17.20;35.70;95519.97;5063088;28;20186;-76
2022/03/28 08:19:45;;;;;;;17.27;14.20;;;;;;;18.37;33.67;95516.72;5057040;28;20429;-76
2022/03/28 08:22:10;;;;;;;16.10;13.10;;;;;;;18.50;33.32;95516.56;5057008;28;20521;-76
2022/03/28 08:24:36;;;;;;;15.93;13.60;;;;;;;18.23;33.31;95496.69;5058974;28;20444;-76
2022/03/28 08:27:01;;;;;;;18.40;14.97;;;;;;;18.08;33.90;95500.50;5062683;28;20210;-76
2022/03/28 08:29:27;;;;;;;16.33;14.40;;;;;;;18.34;33.38;95494.13;5054021;28;20287;-76
2022/03/28 08:31:52;;;;;;;25.83;14.30;;;;;;;18.84;32.60;95501.06;5055099;28;20179;-75
2022/03/28 08:34:19;;;;;;;19.30;14.20;;;;;;;19.26;32.22;95495.78;5057983;28;20182;-76
2022/03/28 08:36:45;;;;;;;17.50;14.73;;;;;;;19.34;31.89;95491.19;5055504;28;20257;-76
2022/03/28 08:39:14;;;;;;;17.40;14.17;;;;;;;20.07;30.91;95488.13;5060328;28;20447;-76
2022/03/28 08:41:39;;;;;;;23.60;16.40;;;;;;;20.15;30.66;95488.81;5057698;28;20258;-76
2022/03/28 08:44:05;;;;;;;19.33;16.40;;;;;;;19.87;30.75;95483.16;5060495;28;20437;-76
2022/03/28 08:46:31;;;;;;;21.23;16.30;;;;;;;19.58;30.86;95471.59;5061132;28;20248;-76
2022/03/28 08:48:59;;;;;;;20.30;15.60;;;;;;;20.28;30.29;95469.94;5058113;28;20187;-76
2022/03/28 08:51:30;;;;;;;22.77;16.60;;;;;;;20.71;29.48;95473.97;5063432;28;20179;-76
2022/03/28 08:53:56;;;;;;;21.17;15.50;;;;;;;20.02;29.89;95464.09;5051024;28;20437;-76
2022/03/28 08:56:22;;;;;;;22.37;15.93;;;;;;;20.19;30.46;95460.72;5057589;28;20437;-76
2022/03/28 08:58:48;;;;;;;19.53;14.87;;;;;;;20.14;30.32;95457.94;5060802;28;20441;-76
2022/03/28 09:01:14;;;;;;;19.30;15.50;;;;;;;19.54;31.25;95454.50;5052800;28;20176;-76
2022/03/28 09:03:44;;;;;;;22.80;15.20;;;;;;;19.73;30.88;95457.03;5033852;28;20804;-76
2022/03/28 09:06:39;;;;;;;16.33;14.40;;;;;;;20.10;30.18;95441.66;5061535;28;20432;-76
2022/03/28 09:09:16;;;;;;;26.70;17.80;;;;;;;20.20;30.03;95441.84;5042602;28;20425;-76
2022/03/28 09:11:43;;;;;;;24.80;17.30;;;;;;;20.30;30.16;95443.94;5059523;28;20424;-75
2022/03/28 09:14:14;;;;;;;18.80;16.90;;;;;;;20.72;29.54;95438.38;5036163;28;20512;-76
2022/03/28 09:16:39;;;;;;;31.70;15.83;;;;;;;20.84;29.49;95438.31;5044947;28;20417;-76
2022/03/28 09:19:11;;;;;;;19.53;15.73;;;;;;;20.40;30.07;95436.16;5055361;28;20455;-76
2022/03/28 09:21:38;;;;;;;17.00;15.20;;;;;;;20.87;29.21;95429.84;5062623;28;20202;-76
2022/03/28 09:24:10;;;;;;;17.90;15.37;;;;;;;21.09;29.10;95426.50;5065563;28;20429;-76
2022/03/28 09:26:36;;;;;;;17.27;14.47;;;;;;;21.08;29.24;95425.69;5041126;28;20434;-76
2022/03/28 09:29:05;;;;;;;19.20;14.93;;;;;;;20.90;28.99;95423.25;5055256;28;20521;-76
2022/03/28 09:31:35;;;;;;;19.07;15.50;;;;;;;20.14;30.19;95420.72;5033926;28;20430;-76
2022/03/28 09:34:12;;;;;;;17.10;15.30;;;;;;;21.15;29.04;95410.38;5056125;28;20494;-76
2022/03/28 09:36:53;;;;;;;17.03;14.87;;;;;;;22.42;27.44;95410.56;5062505;28;20429;-76
2022/03/28 09:39:24;;;;;;;17.70;15.47;;;;;;;21.81;27.98;95407.09;5052387;28;20414;-76
2022/03/28 09:42:09;;;;;;;17.93;14.00;;;;;;;21.34;28.72;95399.47;5054098;28;20590;-76
2022/03/28 09:44:42;;;;;;;23.10;15.60;;;;;;;22.06;28.09;95389.81;5042537;28;20950;-76
2022/03/28 09:47:23;;;;;;;17.93;12.97;;;;;;;22.11;27.76;95384.56;5057221;28;20435;-75
2022/03/28 09:49:52;;;;;;;18.90;14.50;;;;;;;21.93;28.12;95378.47;5050711;28;20520;-76
2022/03/28 09:52:25;;;;;;;21.13;14.97;;;;;;;22.25;27.97;95375.13;5057966;28;20476;-75
2022/03/28 09:55:10;;;;;;;23.03;14.80;;;;;;;22.76;26.98;95372.97;5052951;28;20458;-75
2022/03/28 09:57:37;;;;;;;20.73;14.93;;;;;;;23.07;26.40;95364.47;5052490;28;20432;-76
2022/03/28 10:00:20;;;;;;;16.93;15.23;;;;;;;22.66;27.08;95367.56;5064870;28;20425;-76
2022/03/28 10:02:47;;;;;;;22.67;14.50;;;;;;;22.99;26.50;95352.34;5044541;28;20462;-76
2022/03/28 10:05:13;;;;;;;19.43;14.97;;;;;;;22.51;26.92;95348.75;5038626;28;20430;-76
2022/03/28 10:07:38;;;;;;;19.30;14.23;;;;;;;22.48;27.49;95354.56;5046146;28;20520;-76
2022/03/28 10:10:05;;;;;;;26.50;16.30;;;;;;;22.20;27.51;95353.72;5046479;28;20265;-76
2022/03/28 10:12:30;;;;;;;19.73;14.33;;;;;;;22.90;26.78;95344.03;5061718;28;20203;-75
2022/03/28 10:14:57;;;;;;;16.43;14.47;;;;;;;23.10;26.20;95337.25;5056850;28;21091;-76
2022/03/28 10:17:31;;;;;;;16.83;13.50;;;;;;;23.53;25.52;95327.38;5046789;28;20860;-75
2022/03/28 10:19:57;;;;;;;22.13;14.70;;;;;;;23.41;26.09;95327.59;5050442;28;20419;-75
2022/03/28 10:22:33;;;;;;;17.70;14.13;;;;;;;22.71;27.14;95318.75;5044527;28;20495;-75
2022/03/28 10:25:05;;;;;;;17.47;14.80;;;;;;;23.47;26.13;95315.88;5062594;28;20425;-76
2022/03/28 10:27:33;;;;;;;18.50;15.43;;;;;;;23.57;25.76;95313.22;5052115;28;20533;-75
2022/03/28 10:30:17;;;;;;;17.90;14.30;;;;;;;24.35;24.95;95312.47;5052181;28;20443;-76
2022/03/28 10:32:43;;;;;;;23.47;15.70;;;;;;;24.62;24.73;95306.09;5066135;28;20480;-76
2022/03/28 10:35:09;;;;;;;19.33;14.33;;;;;;;23.48;26.07;95290.75;5069267;28;20425;-76
2022/03/28 10:37:37;;;;;;;19.50;14.43;;;;;;;23.49;25.94;95291.56;5055954;28;20207;-75
2022/03/28 10:40:12;;;;;;;19.80;14.97;;;;;;;23.51;25.73;95286.75;5062196;28;20193;-76
2022/03/28 10:42:39;;;;;;;19.33;15.20;;;;;;;23.85;25.28;95289.88;5050509;28;20460;-76
2022/03/28 10:45:07;;;;;;;20.17;14.40;;;;;;;23.84;25.65;95282.91;5023607;28;20425;-76
2022/03/28 10:47:53;;;;;;;23.97;19.60;;;;;;;23.80;25.66;95276.47;5055238;28;20440;-76
2022/03/28 10:50:35;;;;;;;18.23;15.23;;;;;;;23.70;25.71;95273.75;5048083;28;20425;-76
2022/03/28 10:53:10;;;;;;;17.20;15.30;;;;;;;23.66;25.65;95270.00;5044748;28;20485;-76
2022/03/28 10:55:47;;;;;;;16.37;14.40;;;;;;;22.55;27.07;95267.13;5036051;28;20780;-76
2022/03/28 10:58:17;;;;;;;17.37;14.70;;;;;;;22.55;27.01;95264.47;5055363;28;20432;-76
2022/03/28 11:01:11;;;;;;;23.63;14.70;;;;;;;21.77;27.90;95254.09;5068333;28;20441;-76
2022/03/28 11:03:48;;;;;;;25.77;15.97;;;;;;;22.19;27.41;95248.91;5068134;28;20501;-77
2022/03/28 11:06:16;;;;;;;18.67;14.53;;;;;;;23.12;26.33;95250.47;5051466;28;20438;-76
2022/03/28 11:08:45;;;;;;;19.70;13.87;;;;;;;22.76;27.18;95246.75;5058006;28;20862;-76
2022/03/28 11:11:18;;;;;;;14.40;12.90;;;;;;;23.01;26.23;95240.78;5049769;28;20448;-76
2022/03/28 11:13:55;;;;;;;15.87;13.27;;;;;;;23.39;26.27;95245.03;5068115;28;20477;-76
2022/03/28 11:16:44;;;;;;;20.60;14.43;;;;;;;23.42;26.15;95237.56;5054099;28;20423;-76
2022/03/28 11:19:29;;;;;;;15.33;13.30;;;;;;;22.30;27.25;95239.19;5067308;28;20429;-76
2022/03/28 11:22:08;;;;;;;28.90;14.87;;;;;;;22.75;26.63;95237.16;5057080;28;20530;-76
2022/03/28 11:24:58;;;;;;;19.00;14.80;;;;;;;22.19;27.36;95238.25;5036113;28;20425;-76